EZS69AF LFSB-LDSP
Flight info
| Callsign | EZS69AF |
|---|---|
| Flight time | 1h 12m |
| Altitude | 35000 |
| Route | ELBEG Y715 AMRUP N491 TRA DCT DEGES DCT GAMSA N871 MADEB N606 ELMEM DCT DIRAB DCT PUL DCT MINTU DCT SAL |
| Aircraft | A320/M-SDE3FGHIRWY/LB1 |
Departure
| Time | 2026-05-05 17:47 |
|---|---|
| Airport | EuroAirport Basel–Mulhouse–Freiburg (LFSB) |
Arrival
| Time | 2026-05-05 18:59 |
|---|---|
| Airport | Split Saint Jerome Airport (LDSP) |
| Time | Latitude | Longitude | Altitude | Speed | Heading |
|---|---|---|---|---|---|
| 2026-05-05 17:17 | 47.59970 | 7.52819 | 894 ft | 0 kts | 175° |
| 2026-05-05 17:34 | 47.59974 | 7.52818 | 894 ft | 3 kts | 175° |
| 2026-05-05 17:34 | 47.60002 | 7.52814 | 894 ft | 4 kts | 171° |
| 2026-05-05 17:35 | 47.60028 | 7.52806 | 894 ft | 4 kts | 161° |
| 2026-05-05 17:35 | 47.60051 | 7.52788 | 894 ft | 4 kts | 135° |
| 2026-05-05 17:35 | 47.60055 | 7.52783 | 894 ft | 0 kts | 130° |
| 2026-05-05 17:38 | 47.60050 | 7.52792 | 894 ft | 1 kts | 130° |
| 2026-05-05 17:38 | 47.60048 | 7.52795 | 894 ft | 0 kts | 129° |
| 2026-05-05 17:39 | 47.60043 | 7.52814 | 894 ft | 7 kts | 107° |
| 2026-05-05 17:39 | 47.60057 | 7.52870 | 894 ft | 5 kts | 43° |
| 2026-05-05 17:39 | 47.60083 | 7.52871 | 894 ft | 3 kts | 334° |
| 2026-05-05 17:39 | 47.60111 | 7.52838 | 894 ft | 7 kts | 309° |
| 2026-05-05 17:40 | 47.60119 | 7.52762 | 894 ft | 9 kts | 255° |
| 2026-05-05 17:40 | 47.60092 | 7.52673 | 894 ft | 10 kts | 244° |
| 2026-05-05 17:40 | 47.60076 | 7.52574 | 893 ft | 9 kts | 288° |
| 2026-05-05 17:40 | 47.60133 | 7.52517 | 892 ft | 8 kts | 333° |
| 2026-05-05 17:41 | 47.60184 | 7.52471 | 891 ft | 9 kts | 306° |
| 2026-05-05 17:41 | 47.60217 | 7.52364 | 886 ft | 14 kts | 338° |
| 2026-05-05 17:41 | 47.60314 | 7.52295 | 886 ft | 18 kts | 335° |
| 2026-05-05 17:41 | 47.60451 | 7.52200 | 886 ft | 23 kts | 335° |
| 2026-05-05 17:42 | 47.60599 | 7.52097 | 886 ft | 24 kts | 335° |
| 2026-05-05 17:42 | 47.60752 | 7.51990 | 885 ft | 25 kts | 335° |
| 2026-05-05 17:42 | 47.60907 | 7.51882 | 885 ft | 25 kts | 335° |
| 2026-05-05 17:42 | 47.60920 | 7.51873 | 885 ft | 25 kts | 335° |
| 2026-05-05 17:43 | 47.60940 | 7.51860 | 885 ft | 24 kts | 335° |
| 2026-05-05 17:43 | 47.61030 | 7.51798 | 885 ft | 7 kts | 335° |
| 2026-05-05 17:44 | 47.61074 | 7.51756 | 885 ft | 8 kts | 309° |
| 2026-05-05 17:44 | 47.61075 | 7.51661 | 884 ft | 11 kts | 246° |
| 2026-05-05 17:44 | 47.61035 | 7.51545 | 878 ft | 5 kts | 231° |
| 2026-05-05 17:44 | 47.61027 | 7.51532 | 878 ft | 6 kts | 221° |
| 2026-05-05 17:45 | 47.60986 | 7.51533 | 879 ft | 0 kts | 155° |
| 2026-05-05 17:46 | 47.60973 | 7.51542 | 880 ft | 12 kts | 155° |
| 2026-05-05 17:46 | 47.60645 | 7.51769 | 882 ft | 89 kts | 155° |
| 2026-05-05 17:46 | 47.59896 | 7.52291 | 887 ft | 147 kts | 155° |
| 2026-05-05 17:46 | 47.58844 | 7.53020 | 1122 ft | 171 kts | 158° |
| 2026-05-05 17:47 | 47.57780 | 7.53756 | 1910 ft | 167 kts | 159° |
| 2026-05-05 17:47 | 47.56665 | 7.54229 | 2390 ft | 173 kts | 189° |
| 2026-05-05 17:47 | 47.55499 | 7.53664 | 2677 ft | 186 kts | 215° |
| 2026-05-05 17:47 | 47.54557 | 7.52260 | 2973 ft | 204 kts | 246° |
| 2026-05-05 17:48 | 47.54364 | 7.50170 | 3590 ft | 217 kts | 277° |
| 2026-05-05 17:48 | 47.55041 | 7.48126 | 4267 ft | 232 kts | 312° |
| 2026-05-05 17:48 | 47.56516 | 7.47084 | 5083 ft | 247 kts | 351° |
| 2026-05-05 17:48 | 47.58229 | 7.47525 | 5850 ft | 256 kts | 9° |
| 2026-05-05 17:49 | 47.60001 | 7.47697 | 6501 ft | 257 kts | 351° |
| 2026-05-05 17:49 | 47.61778 | 7.47367 | 7286 ft | 256 kts | 347° |
| 2026-05-05 17:49 | 47.63549 | 7.46959 | 8045 ft | 261 kts | 350° |
| 2026-05-05 17:49 | 47.65362 | 7.47392 | 8712 ft | 274 kts | 26° |
| 2026-05-05 17:50 | 47.66813 | 7.49320 | 9138 ft | 294 kts | 60° |
| 2026-05-05 17:50 | 47.67532 | 7.52220 | 9585 ft | 307 kts | 81° |
| 2026-05-05 17:50 | 47.67852 | 7.55383 | 10195 ft | 316 kts | 87° |
| 2026-05-05 17:50 | 47.68051 | 7.58757 | 10428 ft | 339 kts | 88° |
| 2026-05-05 17:51 | 47.68272 | 7.62372 | 10637 ft | 363 kts | 86° |
| 2026-05-05 17:51 | 47.68584 | 7.66203 | 10972 ft | 381 kts | 84° |
| 2026-05-05 17:51 | 47.68996 | 7.70117 | 11610 ft | 387 kts | 82° |
| 2026-05-05 17:51 | 47.69404 | 7.73429 | 12170 ft | 391 kts | 80° |
| 2026-05-05 17:52 | 47.70220 | 7.77299 | 12877 ft | 396 kts | 69° |
| 2026-05-05 17:52 | 47.71247 | 7.81112 | 13609 ft | 398 kts | 69° |
| 2026-05-05 17:52 | 47.72250 | 7.84947 | 14221 ft | 401 kts | 70° |
| 2026-05-05 17:52 | 47.73241 | 7.88842 | 14849 ft | 404 kts | 71° |
| 2026-05-05 17:53 | 47.74203 | 7.92716 | 15476 ft | 407 kts | 71° |
| 2026-05-05 17:53 | 47.75178 | 7.96671 | 16126 ft | 409 kts | 71° |
| 2026-05-05 17:53 | 47.76140 | 8.00667 | 16743 ft | 411 kts | 75° |
| 2026-05-05 17:53 | 47.76738 | 8.04818 | 17357 ft | 412 kts | 85° |
| 2026-05-05 17:54 | 47.76833 | 8.09073 | 17969 ft | 412 kts | 96° |
| 2026-05-05 17:54 | 47.76429 | 8.13270 | 18528 ft | 411 kts | 106° |
| 2026-05-05 17:54 | 47.75553 | 8.17306 | 19093 ft | 410 kts | 113° |
| 2026-05-05 17:54 | 47.74555 | 8.21285 | 19662 ft | 411 kts | 113° |
| 2026-05-05 17:55 | 47.73555 | 8.25277 | 20217 ft | 413 kts | 113° |
| 2026-05-05 17:55 | 47.72555 | 8.29279 | 20765 ft | 414 kts | 113° |
| 2026-05-05 17:55 | 47.71550 | 8.33296 | 21318 ft | 416 kts | 113° |
| 2026-05-05 17:55 | 47.70539 | 8.37333 | 21862 ft | 417 kts | 113° |
| 2026-05-05 17:56 | 47.69526 | 8.41378 | 22355 ft | 419 kts | 113° |
| 2026-05-05 17:56 | 47.68368 | 8.45346 | 22794 ft | 420 kts | 120° |
| 2026-05-05 17:56 | 47.66995 | 8.49187 | 23254 ft | 422 kts | 121° |
| 2026-05-05 17:56 | 47.65616 | 8.53033 | 23663 ft | 424 kts | 121° |
| 2026-05-05 17:57 | 47.64242 | 8.56861 | 24013 ft | 427 kts | 121° |
| 2026-05-05 17:57 | 47.62843 | 8.60756 | 24350 ft | 429 kts | 121° |
| 2026-05-05 17:57 | 47.61439 | 8.64666 | 24661 ft | 432 kts | 121° |
| 2026-05-05 17:57 | 47.60021 | 8.68604 | 24963 ft | 434 kts | 121° |
| 2026-05-05 17:58 | 47.58594 | 8.72561 | 25261 ft | 437 kts | 121° |
| 2026-05-05 17:58 | 47.57157 | 8.76544 | 25556 ft | 439 kts | 121° |
| 2026-05-05 17:58 | 47.55714 | 8.80535 | 25873 ft | 442 kts | 121° |
| 2026-05-05 17:58 | 47.54252 | 8.84560 | 26096 ft | 446 kts | 121° |
| 2026-05-05 17:59 | 47.52774 | 8.88622 | 26348 ft | 449 kts | 121° |
| 2026-05-05 17:59 | 47.51289 | 8.92698 | 26611 ft | 451 kts | 121° |
| 2026-05-05 17:59 | 47.49795 | 8.96805 | 26877 ft | 454 kts | 122° |
| 2026-05-05 17:59 | 47.48295 | 9.00929 | 27141 ft | 456 kts | 122° |
| 2026-05-05 18:00 | 47.46789 | 9.05061 | 27400 ft | 458 kts | 122° |
| 2026-05-05 18:00 | 47.45273 | 9.09211 | 27652 ft | 460 kts | 122° |
| 2026-05-05 18:00 | 47.43750 | 9.13377 | 27877 ft | 462 kts | 121° |
| 2026-05-05 18:00 | 47.42428 | 9.17747 | 28054 ft | 470 kts | 112° |
| 2026-05-05 18:01 | 47.41567 | 9.22367 | 28219 ft | 477 kts | 104° |
| 2026-05-05 18:01 | 47.41193 | 9.27267 | 28441 ft | 483 kts | 95° |
| 2026-05-05 18:01 | 47.41155 | 9.32226 | 28760 ft | 483 kts | 94° |
| 2026-05-05 18:01 | 47.41124 | 9.37185 | 29059 ft | 483 kts | 94° |
| 2026-05-05 18:02 | 47.41086 | 9.42151 | 29398 ft | 483 kts | 94° |
| 2026-05-05 18:02 | 47.41036 | 9.47111 | 29730 ft | 482 kts | 94° |
| 2026-05-05 18:02 | 47.40981 | 9.52055 | 30072 ft | 481 kts | 94° |
| 2026-05-05 18:02 | 47.40927 | 9.57000 | 30377 ft | 481 kts | 94° |
| 2026-05-05 18:03 | 47.40876 | 9.61937 | 30628 ft | 481 kts | 95° |
| 2026-05-05 18:03 | 47.40622 | 9.66835 | 30854 ft | 477 kts | 103° |
| 2026-05-05 18:03 | 47.40016 | 9.71644 | 31094 ft | 476 kts | 105° |
| 2026-05-05 18:03 | 47.39389 | 9.76439 | 31348 ft | 476 kts | 105° |
| 2026-05-05 18:04 | 47.38762 | 9.81244 | 31611 ft | 477 kts | 105° |
| 2026-05-05 18:04 | 47.38134 | 9.86048 | 31900 ft | 477 kts | 105° |
| 2026-05-05 18:04 | 47.37505 | 9.90855 | 32129 ft | 477 kts | 105° |
| 2026-05-05 18:04 | 47.36877 | 9.95658 | 32393 ft | 478 kts | 106° |
| 2026-05-05 18:05 | 47.36242 | 10.00484 | 32559 ft | 480 kts | 106° |
| 2026-05-05 18:05 | 47.35601 | 10.05319 | 32700 ft | 481 kts | 107° |
| 2026-05-05 18:05 | 47.34962 | 10.10100 | 32950 ft | 481 kts | 107° |
| 2026-05-05 18:05 | 47.34315 | 10.14935 | 33237 ft | 481 kts | 107° |
| 2026-05-05 18:06 | 47.33668 | 10.19782 | 33513 ft | 480 kts | 107° |
| 2026-05-05 18:06 | 47.33451 | 10.21404 | 33623 ft | 480 kts | 107° |
| 2026-05-05 18:06 | 47.32371 | 10.29421 | 34096 ft | 479 kts | 107° |
| 2026-05-05 18:06 | 47.31716 | 10.34230 | 34368 ft | 478 kts | 107° |
| 2026-05-05 18:07 | 47.31057 | 10.39027 | 34637 ft | 477 kts | 107° |
| 2026-05-05 18:07 | 47.30393 | 10.43814 | 34805 ft | 476 kts | 107° |
| 2026-05-05 18:07 | 47.29649 | 10.48558 | 34866 ft | 472 kts | 113° |
| 2026-05-05 18:07 | 47.28441 | 10.53007 | 34859 ft | 465 kts | 124° |
| 2026-05-05 18:08 | 47.26771 | 10.57025 | 34862 ft | 456 kts | 133° |
| 2026-05-05 18:08 | 47.22393 | 10.63532 | 34866 ft | 441 kts | 150° |
| 2026-05-05 18:09 | 47.17400 | 10.68774 | 34879 ft | 441 kts | 151° |
| 2026-05-05 18:09 | 47.12407 | 10.74009 | 34881 ft | 441 kts | 151° |
| 2026-05-05 18:10 | 47.07402 | 10.79243 | 34855 ft | 442 kts | 150° |
| 2026-05-05 18:10 | 47.02431 | 10.84424 | 34874 ft | 432 kts | 151° |
| 2026-05-05 18:10 | 47.00038 | 10.86933 | 34910 ft | 413 kts | 150° |
| 2026-05-05 18:11 | 46.97726 | 10.89352 | 34926 ft | 409 kts | 151° |
| 2026-05-05 18:11 | 46.92992 | 10.94232 | 34944 ft | 422 kts | 151° |
| 2026-05-05 18:12 | 46.88106 | 10.99252 | 34940 ft | 435 kts | 151° |
| 2026-05-05 18:12 | 46.83145 | 11.04371 | 34971 ft | 442 kts | 150° |
| 2026-05-05 18:13 | 46.78590 | 11.10588 | 34965 ft | 453 kts | 138° |
| 2026-05-05 18:13 | 46.74299 | 11.17337 | 34982 ft | 453 kts | 139° |
| 2026-05-05 18:14 | 46.69993 | 11.24043 | 34979 ft | 453 kts | 139° |
| 2026-05-05 18:14 | 46.65675 | 11.30748 | 34958 ft | 453 kts | 138° |
| 2026-05-05 18:15 | 46.61359 | 11.37441 | 34954 ft | 453 kts | 139° |
| 2026-05-05 18:15 | 46.57035 | 11.44132 | 34928 ft | 454 kts | 139° |
| 2026-05-05 18:16 | 46.53433 | 11.49691 | 34935 ft | 455 kts | 139° |
| 2026-05-05 18:16 | 46.48383 | 11.57461 | 34944 ft | 455 kts | 139° |
| 2026-05-05 18:17 | 46.44741 | 11.63060 | 34955 ft | 455 kts | 139° |
| 2026-05-05 18:17 | 46.39684 | 11.70821 | 34988 ft | 456 kts | 139° |
| 2026-05-05 18:18 | 46.35334 | 11.77474 | 34978 ft | 456 kts | 139° |
| 2026-05-05 18:18 | 46.31669 | 11.83059 | 34984 ft | 457 kts | 139° |
| 2026-05-05 18:19 | 46.27283 | 11.89725 | 34979 ft | 458 kts | 139° |
| 2026-05-05 18:19 | 46.22890 | 11.96395 | 34987 ft | 458 kts | 139° |
| 2026-05-05 18:20 | 46.18519 | 12.03027 | 34981 ft | 459 kts | 138° |
| 2026-05-05 18:20 | 46.14103 | 12.09706 | 34984 ft | 460 kts | 138° |
| 2026-05-05 18:21 | 46.09665 | 12.16391 | 34985 ft | 461 kts | 139° |
| 2026-05-05 18:21 | 46.05222 | 12.23063 | 34987 ft | 462 kts | 139° |
| 2026-05-05 18:22 | 46.00780 | 12.29730 | 34987 ft | 462 kts | 139° |
| 2026-05-05 18:22 | 45.96321 | 12.36406 | 34982 ft | 462 kts | 138° |
| 2026-05-05 18:23 | 45.91863 | 12.43050 | 34983 ft | 462 kts | 138° |
| 2026-05-05 18:23 | 45.87394 | 12.49702 | 34977 ft | 463 kts | 139° |
| 2026-05-05 18:24 | 45.82935 | 12.56328 | 34975 ft | 465 kts | 139° |
| 2026-05-05 18:24 | 45.78424 | 12.63004 | 34978 ft | 466 kts | 139° |
| 2026-05-05 18:25 | 45.73910 | 12.69669 | 34965 ft | 467 kts | 139° |
| 2026-05-05 18:25 | 45.69385 | 12.76339 | 34978 ft | 467 kts | 139° |
| 2026-05-05 18:26 | 45.64856 | 12.82997 | 34986 ft | 467 kts | 139° |
| 2026-05-05 18:26 | 45.60309 | 12.89668 | 34979 ft | 469 kts | 139° |
| 2026-05-05 18:27 | 45.55746 | 12.96343 | 34959 ft | 470 kts | 139° |
| 2026-05-05 18:27 | 45.51169 | 13.03030 | 34972 ft | 471 kts | 139° |
| 2026-05-05 18:28 | 45.44476 | 13.12756 | 34979 ft | 477 kts | 139° |
| 2026-05-05 18:28 | 45.39818 | 13.19501 | 34972 ft | 485 kts | 139° |
| 2026-05-05 18:29 | 45.35057 | 13.26390 | 34984 ft | 491 kts | 139° |
| 2026-05-05 18:29 | 45.30313 | 13.33254 | 35003 ft | 481 kts | 139° |
| 2026-05-05 18:30 | 45.25630 | 13.40008 | 35010 ft | 478 kts | 139° |
| 2026-05-05 18:30 | 45.20943 | 13.46724 | 35006 ft | 478 kts | 139° |
| 2026-05-05 18:31 | 45.16262 | 13.53419 | 35003 ft | 478 kts | 140° |
| 2026-05-05 18:31 | 45.11552 | 13.60150 | 35001 ft | 483 kts | 139° |
| 2026-05-05 18:32 | 45.06814 | 13.66900 | 35016 ft | 483 kts | 139° |
| 2026-05-05 18:32 | 45.02080 | 13.73646 | 35017 ft | 484 kts | 139° |
| 2026-05-05 18:33 | 44.97334 | 13.80391 | 35026 ft | 484 kts | 139° |
| 2026-05-05 18:33 | 44.92570 | 13.87121 | 35012 ft | 484 kts | 139° |
| 2026-05-05 18:34 | 44.87837 | 13.93790 | 35006 ft | 485 kts | 139° |
| 2026-05-05 18:34 | 44.83071 | 14.00566 | 35015 ft | 486 kts | 139° |
| 2026-05-05 18:35 | 44.78311 | 14.07351 | 35015 ft | 487 kts | 139° |
| 2026-05-05 18:35 | 44.73535 | 14.14133 | 35017 ft | 488 kts | 139° |
| 2026-05-05 18:36 | 44.68745 | 14.20905 | 35007 ft | 488 kts | 139° |
| 2026-05-05 18:36 | 44.63980 | 14.27627 | 35004 ft | 489 kts | 139° |
| 2026-05-05 18:37 | 44.59177 | 14.34396 | 35016 ft | 490 kts | 139° |
| 2026-05-05 18:37 | 44.54359 | 14.41169 | 35018 ft | 490 kts | 140° |
| 2026-05-05 18:38 | 44.49532 | 14.47929 | 35019 ft | 491 kts | 139° |
| 2026-05-05 18:38 | 44.44696 | 14.54674 | 35010 ft | 491 kts | 140° |
| 2026-05-05 18:39 | 44.42278 | 14.58047 | 34888 ft | 490 kts | 140° |
| 2026-05-05 18:39 | 44.39854 | 14.61421 | 34121 ft | 492 kts | 140° |
| 2026-05-05 18:39 | 44.37421 | 14.64798 | 33172 ft | 494 kts | 140° |
| 2026-05-05 18:39 | 44.34977 | 14.68186 | 32371 ft | 495 kts | 140° |
| 2026-05-05 18:40 | 44.32496 | 14.71524 | 31604 ft | 495 kts | 142° |
| 2026-05-05 18:40 | 44.29937 | 14.74720 | 30859 ft | 493 kts | 143° |
| 2026-05-05 18:40 | 44.27321 | 14.77796 | 30140 ft | 491 kts | 144° |
| 2026-05-05 18:40 | 44.24676 | 14.80803 | 29291 ft | 491 kts | 145° |
| 2026-05-05 18:41 | 44.22020 | 14.83798 | 28345 ft | 490 kts | 144° |
| 2026-05-05 18:41 | 44.19378 | 14.86810 | 27229 ft | 492 kts | 144° |
| 2026-05-05 18:41 | 44.16768 | 14.89831 | 26472 ft | 493 kts | 143° |
| 2026-05-05 18:41 | 44.14159 | 14.92894 | 25741 ft | 488 kts | 143° |
| 2026-05-05 18:42 | 44.11588 | 14.95942 | 24976 ft | 482 kts | 142° |
| 2026-05-05 18:42 | 44.09051 | 14.98953 | 24178 ft | 478 kts | 142° |
| 2026-05-05 18:42 | 44.06528 | 15.01940 | 23378 ft | 475 kts | 142° |
| 2026-05-05 18:42 | 44.04015 | 15.04895 | 22593 ft | 469 kts | 142° |
| 2026-05-05 18:43 | 44.01531 | 15.07797 | 21872 ft | 463 kts | 142° |
| 2026-05-05 18:43 | 43.99079 | 15.10653 | 21178 ft | 458 kts | 142° |
| 2026-05-05 18:43 | 43.96647 | 15.13479 | 20490 ft | 453 kts | 142° |
| 2026-05-05 18:43 | 43.94237 | 15.16280 | 19822 ft | 449 kts | 142° |
| 2026-05-05 18:44 | 43.91857 | 15.19063 | 19169 ft | 445 kts | 142° |
| 2026-05-05 18:44 | 43.89521 | 15.21844 | 18551 ft | 441 kts | 141° |
| 2026-05-05 18:44 | 43.87217 | 15.24621 | 17891 ft | 437 kts | 141° |
| 2026-05-05 18:44 | 43.84975 | 15.27335 | 17329 ft | 430 kts | 141° |
| 2026-05-05 18:45 | 43.82737 | 15.30041 | 16775 ft | 424 kts | 141° |
| 2026-05-05 18:45 | 43.80518 | 15.32709 | 16236 ft | 420 kts | 141° |
| 2026-05-05 18:45 | 43.78325 | 15.35335 | 15704 ft | 415 kts | 141° |
| 2026-05-05 18:45 | 43.76144 | 15.37933 | 15175 ft | 411 kts | 141° |
| 2026-05-05 18:46 | 43.73986 | 15.40500 | 14621 ft | 408 kts | 141° |
| 2026-05-05 18:46 | 43.71840 | 15.43053 | 14063 ft | 405 kts | 141° |
| 2026-05-05 18:46 | 43.69710 | 15.45589 | 13436 ft | 403 kts | 141° |
| 2026-05-05 18:46 | 43.67597 | 15.48101 | 12831 ft | 399 kts | 141° |
| 2026-05-05 18:47 | 43.65504 | 15.50583 | 12216 ft | 395 kts | 141° |
| 2026-05-05 18:47 | 43.63427 | 15.53044 | 11572 ft | 391 kts | 141° |
| 2026-05-05 18:47 | 43.61379 | 15.55480 | 11093 ft | 384 kts | 141° |
| 2026-05-05 18:47 | 43.59380 | 15.57900 | 10834 ft | 384 kts | 140° |
| 2026-05-05 18:48 | 43.57411 | 15.60316 | 10562 ft | 371 kts | 140° |
| 2026-05-05 18:48 | 43.55562 | 15.62606 | 10559 ft | 352 kts | 140° |
| 2026-05-05 18:48 | 43.53791 | 15.64803 | 10552 ft | 333 kts | 140° |
| 2026-05-05 18:48 | 43.52113 | 15.66881 | 10537 ft | 317 kts | 140° |
| 2026-05-05 18:49 | 43.50503 | 15.68866 | 10233 ft | 305 kts | 141° |
| 2026-05-05 18:49 | 43.49437 | 15.70172 | 10057 ft | 302 kts | 141° |
| 2026-05-05 18:49 | 43.47363 | 15.72705 | 9832 ft | 300 kts | 141° |
| 2026-05-05 18:49 | 43.45801 | 15.74611 | 9699 ft | 300 kts | 141° |
| 2026-05-05 18:50 | 43.44242 | 15.76512 | 9536 ft | 300 kts | 141° |
| 2026-05-05 18:50 | 43.42669 | 15.78427 | 9040 ft | 302 kts | 141° |
| 2026-05-05 18:50 | 43.41104 | 15.80334 | 8554 ft | 301 kts | 141° |
| 2026-05-05 18:50 | 43.39560 | 15.82219 | 7963 ft | 295 kts | 140° |
| 2026-05-05 18:51 | 43.38037 | 15.84075 | 7374 ft | 291 kts | 141° |
| 2026-05-05 18:51 | 43.36524 | 15.85917 | 6836 ft | 290 kts | 141° |
| 2026-05-05 18:51 | 43.35013 | 15.87749 | 6313 ft | 290 kts | 141° |
| 2026-05-05 18:51 | 43.33656 | 15.89745 | 5743 ft | 284 kts | 122° |
| 2026-05-05 18:52 | 43.33042 | 15.92286 | 5227 ft | 279 kts | 94° |
| 2026-05-05 18:52 | 43.33358 | 15.94846 | 4707 ft | 274 kts | 61° |
| 2026-05-05 18:52 | 43.34629 | 15.96607 | 4556 ft | 258 kts | 28° |
| 2026-05-05 18:52 | 43.36155 | 15.97760 | 4488 ft | 244 kts | 37° |
| 2026-05-05 18:53 | 43.36907 | 15.98909 | 4442 ft | 234 kts | 60° |
| 2026-05-05 18:53 | 43.37649 | 16.00688 | 4346 ft | 231 kts | 58° |
| 2026-05-05 18:54 | 43.38601 | 16.02486 | 4254 ft | 231 kts | 53° |
| 2026-05-05 18:54 | 43.39583 | 16.04218 | 4149 ft | 229 kts | 53° |
| 2026-05-05 18:54 | 43.40555 | 16.05940 | 4052 ft | 229 kts | 54° |
| 2026-05-05 18:54 | 43.41530 | 16.07676 | 3811 ft | 227 kts | 54° |
| 2026-05-05 18:55 | 43.42488 | 16.09383 | 3507 ft | 223 kts | 56° |
| 2026-05-05 18:55 | 43.43418 | 16.11040 | 3223 ft | 213 kts | 55° |
| 2026-05-05 18:55 | 43.44307 | 16.12626 | 2944 ft | 206 kts | 56° |
| 2026-05-05 18:55 | 43.45170 | 16.14167 | 2711 ft | 197 kts | 56° |
| 2026-05-05 18:56 | 43.45980 | 16.15614 | 2428 ft | 185 kts | 57° |
| 2026-05-05 18:56 | 43.46744 | 16.16977 | 2176 ft | 174 kts | 57° |
| 2026-05-05 18:56 | 43.47457 | 16.18251 | 1947 ft | 161 kts | 59° |
| 2026-05-05 18:56 | 43.48116 | 16.19428 | 1727 ft | 149 kts | 60° |
| 2026-05-05 18:57 | 43.48721 | 16.20512 | 1558 ft | 141 kts | 58° |
| 2026-05-05 18:57 | 43.49316 | 16.21580 | 1354 ft | 141 kts | 53° |
| 2026-05-05 18:57 | 43.49910 | 16.22650 | 1171 ft | 140 kts | 52° |
| 2026-05-05 18:57 | 43.50494 | 16.23704 | 1006 ft | 140 kts | 51° |
| 2026-05-05 18:58 | 43.51095 | 16.24752 | 815 ft | 139 kts | 52° |
| 2026-05-05 18:58 | 43.51677 | 16.25810 | 629 ft | 137 kts | 54° |
| 2026-05-05 18:58 | 43.52259 | 16.26857 | 427 ft | 137 kts | 52° |
| 2026-05-05 18:58 | 43.52835 | 16.27896 | 247 ft | 136 kts | 53° |
| 2026-05-05 18:59 | 43.53407 | 16.28923 | 106 ft | 134 kts | 52° |
| 2026-05-05 18:59 | 43.53916 | 16.29834 | 85 ft | 100 kts | 52° |
| 2026-05-05 18:59 | 43.54234 | 16.30406 | 82 ft | 50 kts | 52° |
| 2026-05-05 18:59 | 43.54346 | 16.30606 | 70 ft | 37 kts | 52° |
| 2026-05-05 19:00 | 43.54522 | 16.30924 | 70 ft | 20 kts | 53° |
| 2026-05-05 19:00 | 43.54550 | 16.31017 | 70 ft | 10 kts | 89° |
| 2026-05-05 19:00 | 43.54582 | 16.31051 | 66 ft | 6 kts | 309° |
| 2026-05-05 19:00 | 43.54572 | 16.31015 | 70 ft | 7 kts | 237° |
| 2026-05-05 19:01 | 43.54538 | 16.30953 | 71 ft | 8 kts | 232° |
| 2026-05-05 19:01 | 43.54501 | 16.30887 | 65 ft | 14 kts | 232° |
| 2026-05-05 19:01 | 43.54447 | 16.30789 | 75 ft | 11 kts | 232° |
| 2026-05-05 19:01 | 43.54391 | 16.30689 | 75 ft | 22 kts | 232° |
| 2026-05-05 19:02 | 43.54289 | 16.30509 | 80 ft | 24 kts | 232° |
| 2026-05-05 19:02 | 43.54180 | 16.30318 | 70 ft | 27 kts | 232° |
| 2026-05-05 19:02 | 43.54063 | 16.30126 | 77 ft | 22 kts | 211° |
| 2026-05-05 19:02 | 43.53928 | 16.30066 | 74 ft | 14 kts | 199° |
| 2026-05-05 19:03 | 43.53868 | 16.29992 | 78 ft | 10 kts | 231° |
| 2026-05-05 19:03 | 43.53833 | 16.29925 | 79 ft | 8 kts | 233° |
| 2026-05-05 19:03 | 43.53803 | 16.29872 | 80 ft | 8 kts | 232° |
| 2026-05-05 19:03 | 43.53725 | 16.29743 | 86 ft | 17 kts | 231° |
| 2026-05-05 19:04 | 43.53664 | 16.29627 | 84 ft | 9 kts | 236° |
| 2026-05-05 19:04 | 43.53615 | 16.29590 | 84 ft | 9 kts | 161° |
| 2026-05-05 19:04 | 43.53566 | 16.29647 | 82 ft | 10 kts | 139° |
| 2026-05-05 19:04 | 43.53546 | 16.29670 | 83 ft | 2 kts | 143° |
| 2026-05-05 19:05 | 43.53496 | 16.29717 | 73 ft | 10 kts | 159° |
| 2026-05-05 19:05 | 43.53480 | 16.29709 | 77 ft | 2 kts | 200° |
| 2026-05-05 19:05 | 43.53467 | 16.29705 | 78 ft | 3 kts | 195° |
| 2026-05-05 19:05 | 43.53460 | 16.29702 | 78 ft | 0 kts | 195° |
| 2026-05-05 19:08 | 43.53464 | 16.29696 | 78 ft | 0 kts | 193° |
| 2026-05-05 19:08 | 43.53690 | 16.29810 | 87 ft | 0 kts | 117° |